Time;durP1;ratioP1;P1;durP2;ratioP2;P2;SDS_P1;SDS_P2;PMS_P1;PMS_P2;Temp;Humidity;BMP_temperature;BMP_pressure;BME280_temperature;BME280_humidity;BME280_pressure;Samples;Min_cycle;Max_cycle;Signal;HPM_P1;HPM_P2
2021/10/13 00:02:07;;;;;;;7.28;2.15;;;10.70;79.00;;;;;;5075276;28;20024;-72
2021/10/13 00:04:32;;;;;;;6.80;2.35;;;10.80;79.10;;;;;;5071222;28;20028;-72
2021/10/13 00:06:58;;;;;;;6.68;2.17;;;10.80;79.20;;;;;;5091403;28;20162;-89
2021/10/13 00:09:24;;;;;;;5.00;2.15;;;10.80;79.00;;;;;;5071289;28;20036;-72
2021/10/13 00:11:50;;;;;;;3.10;1.67;;;10.80;79.10;;;;;;5051230;28;20024;-72
2021/10/13 00:14:16;;;;;;;5.88;2.63;;;10.80;79.20;;;;;;5076340;28;20612;-90
2021/10/13 00:16:51;;;;;;;7.55;1.90;;;10.80;79.20;;;;;;5073688;28;20057;-89
2021/10/13 00:19:17;;;;;;;7.30;1.90;;;10.80;79.10;;;;;;5090878;28;20122;-89
2021/10/13 00:21:42;;;;;;;6.70;1.90;;;10.80;78.80;;;;;;5090805;28;20624;-89
2021/10/13 00:24:08;;;;;;;4.63;1.70;;;10.70;78.50;;;;;;5073018;28;20114;-89
2021/10/13 00:26:34;;;;;;;4.28;1.73;;;10.70;78.50;;;;;;5092891;28;20040;-87
2021/10/13 00:28:59;;;;;;;7.07;2.30;;;10.70;78.70;;;;;;5110363;28;20020;-89
2021/10/13 00:31:25;;;;;;;8.77;2.35;;;10.70;78.90;;;;;;5106135;28;20093;-72
2021/10/13 00:33:50;;;;;;;7.15;1.80;;;10.60;79.00;;;;;;5078646;28;20036;-72
2021/10/13 00:36:16;;;;;;;6.38;1.90;;;10.60;79.20;;;;;;5092743;28;20121;-72
2021/10/13 00:38:42;;;;;;;6.85;2.40;;;10.60;79.20;;;;;;5059552;28;20081;-89
2021/10/13 00:41:07;;;;;;;6.55;2.00;;;10.60;79.30;;;;;;5074766;28;20023;-71
2021/10/13 00:43:33;;;;;;;9.07;2.28;;;10.60;79.40;;;;;;5109150;28;20078;-89
2021/10/13 00:45:59;;;;;;;8.30;2.28;;;10.60;79.50;;;;;;5080069;28;20046;-89
2021/10/13 00:48:24;;;;;;;11.77;2.97;;;10.50;79.50;;;;;;5091622;28;20036;-72
2021/10/13 00:50:50;;;;;;;6.03;1.90;;;10.50;79.50;;;;;;5094177;28;20034;-89
2021/10/13 00:53:17;;;;;;;7.45;2.95;;;10.50;79.50;;;;;;5110462;28;20032;-89
2021/10/13 00:55:43;;;;;;;4.65;1.75;;;10.50;79.60;;;;;;5109508;28;20343;-72
2021/10/13 00:58:08;;;;;;;7.05;2.03;;;10.50;79.60;;;;;;5077089;28;20043;-71
2021/10/13 01:00:37;;;;;;;5.80;1.88;;;10.50;79.50;;;;;;5060870;28;20578;-71
2021/10/13 01:03:25;;;;;;;8.05;1.80;;;10.50;79.40;;;;;;5091923;28;20024;-72
2021/10/13 01:06:11;;;;;;;7.35;1.92;;;10.50;79.30;;;;;;5091993;28;20034;-72
2021/10/13 01:08:56;;;;;;;6.57;2.00;;;10.40;79.00;;;;;;5093101;28;20032;-89
2021/10/13 01:11:34;;;;;;;7.10;1.95;;;10.40;79.00;;;;;;5084696;28;20101;-89
2021/10/13 01:14:19;;;;;;;7.05;2.15;;;10.40;79.00;;;;;;5083440;28;20023;-89
2021/10/13 01:17:26;;;;;;;3.20;1.77;;;10.40;79.10;;;;;;5079927;28;20019;-72
2021/10/13 01:20:29;;;;;;;6.53;2.00;;;10.30;79.10;;;;;;5025524;28;20501;-72
2021/10/13 01:23:39;;;;;;;6.90;2.00;;;10.30;79.20;;;;;;5105917;28;20031;-89
2021/10/13 01:26:18;;;;;;;5.63;1.85;;;10.20;79.30;;;;;;5083662;28;20052;-71
2021/10/13 01:28:46;;;;;;;6.47;2.35;;;10.20;79.30;;;;;;5085035;28;20040;-89
2021/10/13 01:31:28;;;;;;;4.45;1.90;;;10.20;79.40;;;;;;5092841;28;20501;-90
2021/10/13 01:34:00;;;;;;;5.72;1.92;;;10.20;79.50;;;;;;5082054;28;20031;-89
2021/10/13 01:36:31;;;;;;;6.13;2.15;;;10.20;79.60;;;;;;5094081;28;20421;-89
2021/10/13 01:38:59;;;;;;;9.43;2.30;;;10.20;79.70;;;;;;5091367;28;20020;-72
2021/10/13 01:41:26;;;;;;;7.90;2.08;;;10.20;79.70;;;;;;5080378;28;20028;-72
2021/10/13 01:43:53;;;;;;;6.45;2.22;;;10.20;79.90;;;;;;5070529;28;20066;-72
2021/10/13 01:46:23;;;;;;;6.20;1.80;;;10.20;79.90;;;;;;5090407;28;20024;-71
2021/10/13 01:48:51;;;;;;;5.18;2.22;;;10.10;79.90;;;;;;5091205;28;20031;-90
2021/10/13 01:51:18;;;;;;;6.43;2.08;;;10.10;80.00;;;;;;5093244;28;20558;-72
2021/10/13 01:53:46;;;;;;;7.45;2.00;;;10.10;80.10;;;;;;5105409;28;20059;-71
2021/10/13 01:56:13;;;;;;;5.18;2.33;;;10.10;80.30;;;;;;5102702;28;20028;-71
2021/10/13 01:58:41;;;;;;;9.68;2.60;;;10.10;80.20;;;;;;5070476;28;20024;-72
2021/10/13 02:01:10;;;;;;;5.95;2.28;;;10.10;80.30;;;;;;5091324;28;20024;-71
2021/10/13 02:03:38;;;;;;;6.35;2.10;;;10.10;80.30;;;;;;5052807;28;20025;-71
2021/10/13 02:06:05;;;;;;;7.95;2.22;;;10.10;80.50;;;;;;5061732;28;20032;-90
2021/10/13 02:08:35;;;;;;;7.10;2.35;;;10.10;80.60;;;;;;5080499;28;20034;-89
2021/10/13 02:11:03;;;;;;;5.63;1.90;;;10.10;80.80;;;;;;5076803;28;20459;-89
2021/10/13 02:13:34;;;;;;;4.32;2.10;;;10.00;80.80;;;;;;5109851;28;20020;-89
2021/10/13 02:16:05;;;;;;;7.15;2.20;;;10.00;80.70;;;;;;5073828;28;20532;-71
2021/10/13 02:18:33;;;;;;;4.50;1.85;;;10.00;81.30;;;;;;5072241;28;20107;-74
2021/10/13 02:21:00;;;;;;;5.35;2.28;;;10.00;80.60;;;;;;5073508;28;20055;-89
2021/10/13 02:23:31;;;;;;;7.95;2.22;;;10.00;80.80;;;;;;5092423;28;20481;-89
2021/10/13 02:26:01;;;;;;;6.13;2.63;;;10.00;80.90;;;;;;5094185;28;20047;-88
2021/10/13 02:28:42;;;;;;;6.35;2.20;;;10.00;81.00;;;;;;5093107;28;20107;-89
2021/10/13 02:31:14;;;;;;;6.97;2.53;;;10.00;80.90;;;;;;5074951;28;20016;-71
2021/10/13 02:33:40;;;;;;;8.65;2.17;;;9.90;80.90;;;;;;5090174;28;20095;-72
2021/10/13 02:36:06;;;;;;;4.70;1.88;;;9.90;80.90;;;;;;5089780;28;20107;-71
2021/10/13 02:38:32;;;;;;;9.27;2.60;;;9.90;81.00;;;;;;5071951;28;20020;-71
2021/10/13 02:41:05;;;;;;;5.57;2.10;;;9.90;81.30;;;;;;5057503;28;20031;-89
2021/10/13 02:43:30;;;;;;;;;;;9.90;81.40;;;;;;5075733;28;20031;-89
2021/10/13 02:46:02;;;;;;;7.20;2.00;;;10.00;81.20;;;;;;5090913;28;20366;-71
2021/10/13 02:48:31;;;;;;;7.18;1.90;;;10.00;81.50;;;;;;5070997;28;20544;-71
2021/10/13 02:51:15;;;;;;;6.75;2.00;;;9.90;81.80;;;;;;5079631;28;20017;-89
2021/10/13 02:54:05;;;;;;;6.68;2.30;;;9.90;82.00;;;;;;5090521;28;20020;-72
2021/10/13 02:56:38;;;;;;;4.70;1.90;;;10.00;82.20;;;;;;5093037;28;20397;-89
2021/10/13 02:59:10;;;;;;;6.28;2.00;;;10.00;82.10;;;;;;5091024;28;20114;-72
2021/10/13 03:01:43;;;;;;;8.98;2.25;;;10.00;82.20;;;;;;5091944;28;20028;-89
2021/10/13 03:04:17;;;;;;;5.53;1.75;;;10.10;82.40;;;;;;5089709;28;20028;-90
2021/10/13 03:06:59;;;;;;;7.82;2.20;;;10.10;82.40;;;;;;5092982;28;20024;-90
2021/10/13 03:09:28;;;;;;;7.45;2.10;;;10.10;82.50;;;;;;5064752;28;20027;-89
2021/10/13 03:11:58;;;;;;;7.32;2.28;;;10.20;82.60;;;;;;5092148;28;20421;-89
2021/10/13 03:14:26;;;;;;;6.50;1.80;;;10.20;82.60;;;;;;5088876;28;20020;-72
2021/10/13 03:16:53;;;;;;;9.57;1.88;;;10.20;82.60;;;;;;5089289;28;20055;-89
2021/10/13 03:19:25;;;;;;;13.25;1.95;;;10.20;82.60;;;;;;5086959;28;20402;-72
2021/10/13 03:21:51;;;;;;;4.72;1.88;;;10.20;82.80;;;;;;5091045;28;20066;-90
2021/10/13 03:24:19;;;;;;;4.38;1.67;;;10.10;82.80;;;;;;5071073;28;20439;-72
2021/10/13 03:26:49;;;;;;;4.03;1.80;;;10.20;83.00;;;;;;5071255;28;20051;-72
2021/10/13 03:29:15;;;;;;;7.10;1.83;;;10.20;83.00;;;;;;5071118;28;20035;-90
2021/10/13 03:31:42;;;;;;;6.00;2.05;;;10.20;83.00;;;;;;5075195;28;20024;-72
2021/10/13 03:34:09;;;;;;;8.70;2.30;;;10.20;83.20;;;;;;5054837;28;20109;-90
2021/10/13 03:36:39;;;;;;;5.07;1.75;;;10.20;83.30;;;;;;5092118;28;20398;-90
2021/10/13 03:39:05;;;;;;;3.97;1.90;;;10.20;83.50;;;;;;5091594;28;20110;-90
2021/10/13 03:41:30;;;;;;;5.32;1.77;;;10.20;83.50;;;;;;5092887;28;20150;-72
2021/10/13 03:43:56;;;;;;;8.68;2.33;;;10.20;83.70;;;;;;5051143;28;20101;-72
2021/10/13 03:46:23;;;;;;;7.50;2.05;;;10.20;83.60;;;;;;5066818;28;20398;-90
2021/10/13 03:48:50;;;;;;;5.63;1.90;;;10.20;83.70;;;;;;5077755;28;20023;-90
2021/10/13 03:51:17;;;;;;;5.45;2.08;;;10.30;83.70;;;;;;5057640;28;20383;-90
2021/10/13 03:53:43;;;;;;;8.10;2.15;;;10.30;83.60;;;;;;5071602;28;20066;-72
2021/10/13 03:56:10;;;;;;;5.35;1.90;;;10.30;83.60;;;;;;5071615;28;20487;-90
2021/10/13 03:58:35;;;;;;;8.40;2.30;;;10.30;83.80;;;;;;5073055;28;20040;-89
2021/10/13 04:01:01;;;;;;;8.73;1.88;;;10.30;83.60;;;;;;5094560;28;20039;-72
2021/10/13 04:03:26;;;;;;;6.93;2.47;;;10.30;83.70;;;;;;5056170;28;20393;-90
2021/10/13 04:05:52;;;;;;;9.65;2.20;;;10.30;83.90;;;;;;5092212;28;20028;-90
2021/10/13 04:08:18;;;;;;;3.42;1.73;;;10.30;83.90;;;;;;5056788;28;20841;-72
2021/10/13 04:10:44;;;;;;;8.65;2.13;;;10.40;83.90;;;;;;5053919;28;20475;-72
2021/10/13 04:13:09;;;;;;;7.97;2.22;;;10.40;83.90;;;;;;5095097;28;20028;-90
2021/10/13 04:15:35;;;;;;;8.55;2.20;;;10.40;83.90;;;;;;5077042;28;20020;-89
2021/10/13 04:18:00;;;;;;;10.20;2.10;;;10.40;83.80;;;;;;5074845;28;20110;-72
2021/10/13 04:20:26;;;;;;;7.82;1.75;;;10.40;83.80;;;;;;5074855;28;20039;-72
2021/10/13 04:22:52;;;;;;;6.22;2.03;;;10.50;83.80;;;;;;5108627;28;20028;-72
2021/10/13 04:25:17;;;;;;;5.13;1.70;;;10.50;83.80;;;;;;5059543;28;20032;-90
2021/10/13 04:27:43;;;;;;;6.05;1.90;;;10.50;83.80;;;;;;5071472;28;20087;-72
2021/10/13 04:30:09;;;;;;;4.68;1.45;;;10.50;83.80;;;;;;5098915;28;20032;-72
2021/10/13 04:32:35;;;;;;;2.92;1.60;;;10.50;83.80;;;;;;5071082;28;20135;-90
2021/10/13 04:35:00;;;;;;;5.05;1.60;;;10.50;83.70;;;;;;5074633;28;20036;-91
2021/10/13 04:37:26;;;;;;;3.40;1.50;;;10.50;83.70;;;;;;5051479;28;20048;-72
2021/10/13 04:39:52;;;;;;;7.43;2.17;;;10.50;83.70;;;;;;5069192;28;20032;-90
2021/10/13 04:42:18;;;;;;;6.32;1.60;;;10.50;83.70;;;;;;5074925;28;20067;-90
2021/10/13 04:44:43;;;;;;;3.88;1.70;;;10.50;83.70;;;;;;5075943;28;20162;-90
2021/10/13 04:47:09;;;;;;;7.22;1.48;;;10.50;83.70;;;;;;5059616;28;20024;-91
2021/10/13 04:49:35;;;;;;;9.82;1.70;;;10.50;83.70;;;;;;5074307;28;20024;-90
2021/10/13 04:52:01;;;;;;;6.25;1.55;;;10.50;83.70;;;;;;5073461;28;20064;-90
2021/10/13 04:54:27;;;;;;;5.05;1.40;;;10.50;83.70;;;;;;5074496;28;20051;-90
2021/10/13 04:56:52;;;;;;;4.07;1.70;;;10.40;83.80;;;;;;5072902;28;20029;-90
2021/10/13 04:59:18;;;;;;;4.65;2.00;;;10.40;83.80;;;;;;5074387;28;20033;-91
2021/10/13 05:01:43;;;;;;;4.50;1.30;;;10.40;83.70;;;;;;5074664;28;20043;-91
2021/10/13 05:04:09;;;;;;;7.05;1.80;;;10.50;83.80;;;;;;5073383;28;20025;-90
2021/10/13 05:06:35;;;;;;;5.80;1.83;;;10.40;83.70;;;;;;5070664;28;20116;-72
2021/10/13 05:09:00;;;;;;;7.40;1.60;;;10.40;83.70;;;;;;5070945;28;20051;-91
2021/10/13 05:11:26;;;;;;;6.13;1.45;;;10.40;83.70;;;;;;5070273;28;20029;-72
2021/10/13 05:13:52;;;;;;;6.13;1.67;;;10.40;83.70;;;;;;5087281;28;20028;-72
2021/10/13 05:16:17;;;;;;;4.28;1.60;;;10.40;83.70;;;;;;5071979;28;20021;-72
2021/10/13 05:18:43;;;;;;;3.80;1.58;;;10.40;83.70;;;;;;5064817;28;20032;-72
2021/10/13 05:21:08;;;;;;;5.25;1.40;;;10.40;83.80;;;;;;5097629;28;20563;-89
2021/10/13 05:23:34;;;;;;;3.22;1.45;;;10.40;83.80;;;;;;5071178;28;20028;-90
2021/10/13 05:26:00;;;;;;;6.35;1.80;;;10.40;83.80;;;;;;5073851;28;20032;-89
2021/10/13 05:28:29;;;;;;;3.95;1.80;;;10.40;83.80;;;;;;5073204;28;20260;-71
2021/10/13 05:30:54;;;;;;;10.82;3.42;;;10.40;83.70;;;;;;5081171;28;20032;-89
2021/10/13 05:33:20;;;;;;;7.57;2.22;;;10.40;83.80;;;;;;5076098;28;20043;-89
2021/10/13 05:35:45;;;;;;;6.80;2.53;;;10.40;83.80;;;;;;5094346;28;20043;-89
2021/10/13 05:38:12;;;;;;;8.95;2.58;;;10.30;83.90;;;;;;5075205;28;20028;-89
2021/10/13 05:40:37;;;;;;;6.45;2.70;;;10.30;84.00;;;;;;5092937;28;20031;-72
2021/10/13 05:43:03;;;;;;;5.07;2.50;;;10.30;84.10;;;;;;5047958;28;20028;-90
2021/10/13 05:45:28;;;;;;;6.75;2.58;;;10.30;84.60;;;;;;5076295;28;20112;-91
2021/10/13 05:47:54;;;;;;;8.90;2.78;;;10.30;84.00;;;;;;5075915;28;20077;-90
2021/10/13 05:50:20;;;;;;;11.57;2.67;;;10.30;84.00;;;;;;5077436;28;20081;-90
2021/10/13 05:52:48;;;;;;;7.32;2.65;;;10.30;84.10;;;;;;5076831;28;20043;-90
2021/10/13 05:55:14;;;;;;;8.73;2.83;;;10.20;84.00;;;;;;5093837;28;20103;-91
2021/10/13 05:57:39;;;;;;;9.20;3.22;;;10.20;84.00;;;;;;5094182;28;20060;-90
2021/10/13 06:00:06;;;;;;;6.78;2.55;;;10.20;84.00;;;;;;5059506;28;20058;-90
2021/10/13 06:02:50;;;;;;;8.20;2.55;;;10.20;83.90;;;;;;5091193;28;20032;-72
2021/10/13 06:05:16;;;;;;;7.13;2.35;;;10.20;84.00;;;;;;5056189;28;20028;-71
2021/10/13 06:07:41;;;;;;;5.90;2.65;;;10.20;84.00;;;;;;5072184;28;20020;-72
2021/10/13 06:10:07;;;;;;;8.90;2.75;;;10.20;83.90;;;;;;5056110;28;20032;-72
2021/10/13 06:12:33;;;;;;;8.00;3.10;;;10.20;83.90;;;;;;5072048;28;20028;-71
2021/10/13 06:14:58;;;;;;;7.13;2.63;;;10.20;83.90;;;;;;5039950;28;20060;-71
2021/10/13 06:17:24;;;;;;;4.57;2.40;;;10.20;83.90;;;;;;5072114;28;20057;-89
2021/10/13 06:19:50;;;;;;;5.57;2.38;;;10.20;84.00;;;;;;5079354;28;20034;-88
2021/10/13 06:22:15;;;;;;;9.70;2.60;;;10.20;84.10;;;;;;5072465;28;20093;-71
2021/10/13 06:24:41;;;;;;;4.45;1.95;;;10.20;84.10;;;;;;5072131;28;20036;-72
2021/10/13 06:27:07;;;;;;;8.45;2.30;;;10.30;84.10;;;;;;5055854;28;20053;-71
2021/10/13 06:29:32;;;;;;;13.07;3.03;;;10.30;84.70;;;;;;5066612;28;20068;-89
2021/10/13 06:31:58;;;;;;;7.40;2.65;;;10.30;84.20;;;;;;5057764;28;20514;-90
2021/10/13 06:34:24;;;;;;;6.05;2.28;;;10.30;84.20;;;;;;5074629;28;20414;-89
2021/10/13 06:36:50;;;;;;;6.65;2.33;;;10.40;84.20;;;;;;5084412;28;20079;-90
2021/10/13 06:39:15;;;;;;;7.97;2.13;;;10.40;84.20;;;;;;5054480;28;20502;-89
2021/10/13 06:41:42;;;;;;;5.68;2.20;;;10.40;84.20;;;;;;5073175;28;20028;-71
2021/10/13 06:44:11;;;;;;;10.10;2.53;;;10.40;84.20;;;;;;5071663;28;20028;-72
2021/10/13 06:46:40;;;;;;;7.03;2.47;;;10.50;84.10;;;;;;5076913;28;20489;-72
2021/10/13 06:49:06;;;;;;;8.63;2.30;;;10.40;84.20;;;;;;5088970;28;20085;-72
2021/10/13 06:51:32;;;;;;;6.25;1.95;;;10.50;84.20;;;;;;5069275;28;20391;-71
2021/10/13 06:53:58;;;;;;;8.40;2.00;;;10.50;84.20;;;;;;5088158;28;20024;-72
2021/10/13 06:56:24;;;;;;;7.00;2.03;;;10.50;84.20;;;;;;5066992;28;20028;-72
2021/10/13 06:58:49;;;;;;;9.48;2.10;;;10.50;84.20;;;;;;5072101;28;20570;-88
2021/10/13 07:01:15;;;;;;;7.10;1.83;;;10.60;84.30;;;;;;5076853;28;20024;-71
2021/10/13 07:03:41;;;;;;;7.63;2.00;;;10.60;84.30;;;;;;5051531;28;20020;-73
2021/10/13 07:06:06;;;;;;;5.75;2.30;;;10.70;84.40;;;;;;5071182;28;20020;-87
2021/10/13 07:08:32;;;;;;;8.65;2.28;;;10.70;84.40;;;;;;5075879;28;20049;-88
2021/10/13 07:10:58;;;;;;;6.63;1.90;;;10.80;84.30;;;;;;5093894;28;20032;-88
2021/10/13 07:13:24;;;;;;;8.52;1.90;;;10.80;84.20;;;;;;5075728;28;20043;-88
2021/10/13 07:15:49;;;;;;;11.43;2.00;;;10.80;84.30;;;;;;5060233;28;20383;-89
2021/10/13 07:18:15;;;;;;;8.50;2.28;;;10.90;84.40;;;;;;5090051;28;20044;-89
2021/10/13 07:20:41;;;;;;;5.07;1.75;;;10.90;84.50;;;;;;5073254;28;20031;-72
2021/10/13 07:23:06;;;;;;;6.38;1.70;;;10.90;84.40;;;;;;5072868;28;20110;-89
2021/10/13 07:25:33;;;;;;;10.63;1.90;;;11.00;84.20;;;;;;5056457;28;20028;-72
2021/10/13 07:28:01;;;;;;;9.07;2.65;;;11.00;84.10;;;;;;5078191;28;20137;-72
2021/10/13 07:30:27;;;;;;;5.30;1.70;;;11.10;84.00;;;;;;5070653;28;20028;-88
2021/10/13 07:32:53;;;;;;;6.15;2.00;;;11.10;84.10;;;;;;5073035;28;20028;-88
2021/10/13 07:35:21;;;;;;;8.68;2.00;;;11.20;84.00;;;;;;5091048;28;20421;-88
2021/10/13 07:37:46;;;;;;;7.18;1.83;;;11.20;83.90;;;;;;5073764;28;20036;-88
2021/10/13 07:40:12;;;;;;;8.50;2.08;;;11.30;83.80;;;;;;5073423;28;20041;-88
2021/10/13 07:42:38;;;;;;;8.05;1.65;;;11.30;83.50;;;;;;5087716;28;20054;-71
2021/10/13 07:45:05;;;;;;;7.57;2.17;;;11.30;83.50;;;;;;5071488;28;20056;-87
2021/10/13 07:47:30;;;;;;;8.50;2.00;;;11.30;83.40;;;;;;5072864;28;20483;-87
2021/10/13 07:49:56;;;;;;;5.93;1.98;;;11.30;83.40;;;;;;5070939;28;20076;-87
2021/10/13 07:52:22;;;;;;;5.35;2.08;;;11.30;83.40;;;;;;5089901;28;20035;-88
2021/10/13 07:54:47;;;;;;;10.15;2.53;;;11.30;83.50;;;;;;5071280;28;20024;-72
2021/10/13 07:57:13;;;;;;;7.78;2.50;;;11.40;83.40;;;;;;5052350;28;20036;-88
2021/10/13 07:59:39;;;;;;;7.78;2.33;;;11.40;83.30;;;;;;5105391;28;20047;-89
2021/10/13 08:02:04;;;;;;;6.18;1.85;;;11.40;83.40;;;;;;5081101;28;20040;-88
2021/10/13 08:04:31;;;;;;;5.28;2.45;;;11.40;83.40;;;;;;5072196;28;20030;-87
2021/10/13 08:06:56;;;;;;;8.80;3.00;;;11.50;83.60;;;;;;5055583;28;20478;-72
2021/10/13 08:09:22;;;;;;;8.25;2.13;;;11.60;83.50;;;;;;5070730;28;20069;-72
2021/10/13 08:11:48;;;;;;;6.93;2.05;;;11.60;83.30;;;;;;5086900;28;20470;-72
2021/10/13 08:14:14;;;;;;;8.40;2.22;;;11.70;83.10;;;;;;5091136;28;20108;-72
2021/10/13 08:16:40;;;;;;;11.63;2.50;;;11.70;82.90;;;;;;5090829;28;20099;-87
2021/10/13 08:19:06;;;;;;;8.10;2.15;;;11.80;82.90;;;;;;5089054;28;20090;-71
2021/10/13 08:21:32;;;;;;;5.43;1.92;;;11.80;82.80;;;;;;5096575;28;20501;-88
2021/10/13 08:23:58;;;;;;;4.13;1.65;;;11.90;82.60;;;;;;5088664;28;20028;-88
2021/10/13 08:26:23;;;;;;;3.50;1.70;;;11.90;82.50;;;;;;5086838;28;20055;-88
2021/10/13 08:28:49;;;;;;;6.25;2.20;;;11.90;82.60;;;;;;5096680;28;20499;-87
2021/10/13 08:31:15;;;;;;;10.27;2.13;;;12.00;82.60;;;;;;5050686;28;20013;-71
2021/10/13 08:33:42;;;;;;;5.60;1.98;;;12.00;82.60;;;;;;5065869;28;20031;-87
2021/10/13 08:36:08;;;;;;;5.13;1.73;;;12.00;82.70;;;;;;5043092;28;20040;-88
2021/10/13 08:38:34;;;;;;;8.25;1.70;;;12.10;82.40;;;;;;5086105;28;20380;-71
2021/10/13 08:40:59;;;;;;;5.82;1.75;;;12.10;82.50;;;;;;5067693;28;20097;-87
2021/10/13 08:43:25;;;;;;;6.90;1.70;;;12.10;82.50;;;;;;5088450;28;20032;-85
2021/10/13 08:45:51;;;;;;;4.63;2.22;;;12.10;82.40;;;;;;5067924;28;20033;-71
2021/10/13 08:48:17;;;;;;;7.13;2.10;;;12.20;82.50;;;;;;5061021;28;20536;-71
2021/10/13 08:50:43;;;;;;;5.25;1.90;;;12.20;82.40;;;;;;5081199;28;20028;-72
2021/10/13 08:53:14;;;;;;;7.60;2.03;;;12.20;82.20;;;;;;5072022;28;20039;-87
2021/10/13 08:55:43;;;;;;;6.82;1.80;;;12.20;81.90;;;;;;5087506;28;20028;-84
2021/10/13 08:58:22;;;;;;;4.10;1.60;;;12.20;81.70;;;;;;5086364;28;20478;-72
2021/10/13 09:01:12;;;;;;;6.47;2.00;;;12.20;81.90;;;;;;5088951;28;20115;-73
2021/10/13 09:03:47;;;;;;;8.38;1.88;;;12.30;81.90;;;;;;5073288;28;20039;-73
2021/10/13 09:06:26;;;;;;;7.00;1.95;;;12.30;81.50;;;;;;5089902;28;20395;-72
2021/10/13 09:08:58;;;;;;;8.65;2.13;;;12.40;81.60;;;;;;5089971;28;20043;-72
2021/10/13 09:11:42;;;;;;;5.22;1.88;;;12.40;81.60;;;;;;5090096;28;20085;-72
2021/10/13 09:14:10;;;;;;;7.70;2.13;;;12.50;81.50;;;;;;5090210;28;20851;-88
2021/10/13 09:17:00;;;;;;;6.32;1.70;;;12.50;81.40;;;;;;5097082;27;20054;-72
2021/10/13 09:19:27;;;;;;;9.00;2.42;;;12.60;81.50;;;;;;5084448;28;20036;-72
2021/10/13 09:21:58;;;;;;;4.75;1.98;;;12.60;81.20;;;;;;5070779;28;20024;-72
2021/10/13 09:24:27;;;;;;;5.70;2.13;;;12.70;81.30;;;;;;5071504;28;20487;-88
2021/10/13 09:26:54;;;;;;;5.25;1.85;;;12.80;80.80;;;;;;5085543;28;20071;-72
2021/10/13 09:29:20;;;;;;;4.97;1.80;;;13.00;80.60;;;;;;5066062;28;20407;-72
2021/10/13 09:31:58;;;;;;;9.18;3.22;;;13.10;80.70;;;;;;5067253;28;20051;-72
2021/10/13 09:34:24;;;;;;;6.18;1.95;;;13.30;80.50;;;;;;5083928;28;20495;-72
2021/10/13 09:36:59;;;;;;;5.57;1.98;;;13.40;79.40;;;;;;5067707;28;20036;-88
2021/10/13 09:39:29;;;;;;;7.90;1.80;;;13.50;79.10;;;;;;5069449;28;20033;-88
2021/10/13 09:42:04;;;;;;;3.17;1.30;;;13.60;78.80;;;;;;5067717;28;20119;-88
2021/10/13 09:44:37;;;;;;;8.13;1.77;;;13.70;78.60;;;;;;5074044;28;20031;-88
2021/10/13 09:47:08;;;;;;;5.28;1.73;;;13.80;78.10;;;;;;5087840;28;20115;-88
2021/10/13 09:49:48;;;;;;;5.38;1.45;;;13.90;77.60;;;;;;5074276;28;20483;-89
2021/10/13 09:52:23;;;;;;;3.72;1.42;;;14.00;77.00;;;;;;5089886;28;20069;-71
2021/10/13 09:55:01;;;;;;;5.68;1.33;;;14.00;76.50;;;;;;5090550;28;20021;-88
2021/10/13 09:57:30;;;;;;;5.70;1.63;;;14.00;77.10;;;;;;5088795;28;20120;-71
2021/10/13 10:00:16;;;;;;;5.38;1.70;;;14.10;77.30;;;;;;5106322;28;20082;-72
2021/10/13 10:02:50;;;;;;;4.28;1.48;;;14.30;76.80;;;;;;5068448;28;20459;-72
2021/10/13 10:05:19;;;;;;;5.03;1.40;;;14.50;76.90;;;;;;5066618;28;20024;-72
2021/10/13 10:08:10;;;;;;;6.25;1.95;;;14.70;76.00;;;;;;5089630;28;20028;-89
2021/10/13 10:10:38;;;;;;;3.95;1.80;;;14.80;75.90;;;;;;5067730;28;20020;-72
2021/10/13 10:13:06;;;;;;;4.95;1.30;;;15.00;74.10;;;;;;5058398;28;20067;-72
2021/10/13 10:15:36;;;;;;;5.22;1.73;;;15.20;73.00;;;;;;5087804;28;20024;-72
2021/10/13 10:18:24;;;;;;;3.97;1.40;;;15.10;72.20;;;;;;5085511;28;20660;-72
2021/10/13 10:20:50;;;;;;;4.38;1.25;;;15.00;71.40;;;;;;5088814;28;20598;-72
2021/10/13 10:23:36;;;;;;;5.07;1.20;;;14.90;71.50;;;;;;5088898;28;20042;-72
2021/10/13 10:26:38;;;;;;;3.20;0.95;;;14.80;71.50;;;;;;5052999;28;20533;-72
2021/10/13 10:29:12;;;;;;;7.68;2.08;;;14.70;71.40;;;;;;5009507;28;20130;-71
2021/10/13 10:31:39;;;;;;;3.97;1.20;;;14.60;71.90;;;;;;5064464;28;20109;-88
2021/10/13 10:34:05;;;;;;;4.32;1.10;;;14.60;71.60;;;;;;5069812;28;20375;-89
2021/10/13 10:36:39;;;;;;;6.38;1.40;;;14.50;72.00;;;;;;5085970;28;20031;-88
2021/10/13 10:39:13;;;;;;;6.30;1.13;;;14.50;71.90;;;;;;5086999;28;20035;-71
2021/10/13 10:41:49;;;;;;;5.07;1.20;;;14.60;71.10;;;;;;5066652;28;20483;-88
2021/10/13 10:44:27;;;;;;;5.38;1.00;;;14.60;70.40;;;;;;5068001;28;20032;-87
2021/10/13 10:47:04;;;;;;;7.45;1.20;;;14.50;70.80;;;;;;5088915;28;20024;-71
2021/10/13 10:49:45;;;;;;;12.98;2.53;;;14.60;70.00;;;;;;5089355;28;20077;-87
2021/10/13 10:52:12;;;;;;;8.15;1.83;;;14.60;70.10;;;;;;5090428;28;20020;-88
2021/10/13 10:54:38;;;;;;;9.93;1.50;;;14.60;69.90;;;;;;5105895;28;20028;-71
2021/10/13 10:57:42;;;;;;;4.05;1.15;;;14.60;70.50;;;;;;5055659;28;20028;-71
2021/10/13 11:00:30;;;;;;;7.47;1.35;;;14.60;69.90;;;;;;5086116;28;20853;-71
2021/10/13 11:03:19;;;;;;;4.95;1.23;;;14.50;70.10;;;;;;5085599;28;20036;-71
2021/10/13 11:05:46;;;;;;;5.38;1.20;;;14.50;69.80;;;;;;5087741;28;20111;-87
2021/10/13 11:08:12;;;;;;;2.38;1.15;;;14.60;70.10;;;;;;5082132;28;20036;-87
2021/10/13 11:10:39;;;;;;;3.42;1.52;;;14.70;69.90;;;;;;5087993;28;20034;-88
2021/10/13 11:13:05;;;;;;;3.60;1.27;;;14.90;69.20;;;;;;5085224;28;20073;-72
2021/10/13 11:15:32;;;;;;;3.25;0.95;;;14.90;68.30;;;;;;5071567;28;20502;-71
2021/10/13 11:18:11;;;;;;;8.57;1.10;;;15.10;68.00;;;;;;5089012;28;20725;-87
2021/10/13 11:20:37;;;;;;;5.97;1.30;;;15.40;67.60;;;;;;5089980;28;20081;-87
2021/10/13 11:23:05;;;;;;;3.17;1.05;;;15.60;67.40;;;;;;5087977;28;20063;-88
2021/10/13 11:25:32;;;;;;;5.53;1.05;;;15.80;66.10;;;;;;5079914;28;20446;-71
2021/10/13 11:37:04;;;;;;;2.85;0.90;;;16.40;63.10;;;;;;5138144;27;20113;-87
2021/10/13 11:39:42;;;;;;;3.17;1.00;;;16.40;63.10;;;;;;5101330;27;20103;-87
2021/10/13 11:42:14;;;;;;;4.75;1.42;;;16.20;63.00;;;;;;5116112;27;20024;-86
2021/10/13 11:44:46;;;;;;;5.18;0.90;;;16.20;63.70;;;;;;5107807;27;20058;-86
2021/10/13 11:47:12;;;;;;;2.90;1.20;;;16.20;63.50;;;;;;5135637;27;20110;-86
2021/10/13 11:50:01;;;;;;;4.50;0.90;;;16.20;63.30;;;;;;5074925;28;20048;-90
2021/10/13 11:52:27;;;;;;;3.65;0.90;;;16.00;63.70;;;;;;5106266;28;20100;-90
2021/10/13 11:55:07;;;;;;;6.07;0.90;;;15.90;64.10;;;;;;5118874;27;20028;-91
2021/10/13 11:57:36;;;;;;;1.80;1.10;;;15.70;64.50;;;;;;5104613;28;20108;-92
2021/10/13 12:00:16;;;;;;;4.15;1.17;;;15.60;65.10;;;;;;5094330;28;20030;-92
2021/10/13 12:03:03;;;;;;;3.88;0.98;;;15.60;64.90;;;;;;5096074;27;20048;-92
2021/10/13 12:05:49;;;;;;;4.40;1.17;;;15.60;65.50;;;;;;5108079;28;20484;-86
2021/10/13 12:08:25;;;;;;;5.65;1.63;;;15.60;65.60;;;;;;5103337;28;20473;-86
2021/10/13 12:11:03;;;;;;;3.33;1.05;;;15.80;66.10;;;;;;5123168;27;20019;-86
2021/10/13 12:13:31;;;;;;;6.78;1.30;;;16.00;65.50;;;;;;5108934;27;20378;-87
2021/10/13 12:16:20;;;;;;;5.57;1.35;;;16.10;64.90;;;;;;5096352;28;20035;-86
2021/10/13 12:18:47;;;;;;;3.47;1.20;;;16.10;63.70;;;;;;5109154;27;20027;-86
2021/10/13 12:21:17;;;;;;;7.25;1.00;;;16.10;64.00;;;;;;5103639;28;20020;-86
2021/10/13 12:23:49;;;;;;;4.72;1.15;;;16.00;64.10;;;;;;5099797;28;20516;-86
2021/10/13 12:26:19;;;;;;;4.57;1.27;;;15.90;65.10;;;;;;5095740;28;20050;-87
2021/10/13 12:28:48;;;;;;;5.40;1.30;;;16.00;64.50;;;;;;5096403;27;20283;-85
2021/10/13 12:31:19;;;;;;;4.53;1.30;;;16.10;64.80;;;;;;5127470;27;20046;-86
2021/10/13 12:33:52;;;;;;;4.75;1.08;;;16.40;64.50;;;;;;5103714;28;20019;-86
2021/10/13 12:36:20;;;;;;;5.55;1.23;;;16.50;64.40;;;;;;5112802;27;20132;-86
2021/10/13 12:38:55;;;;;;;6.05;1.58;;;16.50;63.30;;;;;;5118315;27;20012;-91
2021/10/13 12:41:28;;;;;;;4.10;1.10;;;16.40;63.80;;;;;;5105317;28;20011;-86
2021/10/13 12:43:54;;;;;;;6.80;1.33;;;16.40;64.00;;;;;;5101956;27;20034;-90
2021/10/13 12:46:27;;;;;;;4.60;1.30;;;16.30;63.50;;;;;;5088645;28;20071;-91
2021/10/13 12:48:54;;;;;;;4.35;1.00;;;16.20;63.90;;;;;;5099581;27;20027;-90
2021/10/13 12:51:21;;;;;;;4.93;1.23;;;16.20;63.90;;;;;;5092533;28;20565;-91
2021/10/13 12:53:47;;;;;;;3.78;1.02;;;16.20;63.40;;;;;;5098330;28;20023;-91
2021/10/13 12:56:20;;;;;;;5.00;1.05;;;16.20;62.80;;;;;;5092707;28;20087;-92
2021/10/13 12:58:47;;;;;;;5.90;1.20;;;16.20;63.10;;;;;;5099654;27;20015;-92
2021/10/13 13:01:13;;;;;;;3.28;1.02;;;16.20;63.10;;;;;;5098295;28;20027;-91
2021/10/13 13:03:39;;;;;;;2.78;0.95;;;16.20;63.50;;;;;;5080329;28;20024;-92
2021/10/13 13:06:06;;;;;;;2.42;1.20;;;16.10;64.30;;;;;;5075160;28;20038;-91
2021/10/13 13:08:32;;;;;;;2.80;0.95;;;16.10;63.80;;;;;;5079522;28;20051;-91
2021/10/13 13:10:58;;;;;;;4.95;1.10;;;16.10;63.80;;;;;;5077101;27;20127;-87